Time;durP1;ratioP1;P1;durP2;ratioP2;P2;SDS_P1;SDS_P2;PMS_P1;PMS_P2;Temp;Humidity;BMP_temperature;BMP_pressure;BME280_temperature;BME280_humidity;BME280_pressure;Samples;Min_cycle;Max_cycle;Signal;HPM_P1;HPM_P2
2022/02/21 00:02:17;;;;;;;0.95;0.40;;;;;;;9.46;69.04;97659.28;5066218;28;20093;-69
2022/02/21 00:04:42;;;;;;;1.27;0.30;;;;;;;9.60;69.50;97666.19;5068302;28;20678;-69
2022/02/21 00:07:07;;;;;;;1.42;0.30;;;;;;;9.59;69.35;97651.03;5059418;28;20035;-69
2022/02/21 00:09:33;;;;;;;3.28;0.73;;;;;;;9.61;69.53;97648.09;5066050;28;20031;-69
2022/02/21 00:11:58;;;;;;;2.03;0.40;;;;;;;9.57;69.89;97647.72;5064013;28;20028;-69
2022/02/21 00:14:24;;;;;;;5.50;0.68;;;;;;;9.53;70.27;97630.31;5064658;28;20039;-69
2022/02/21 00:16:49;;;;;;;2.22;0.50;;;;;;;9.48;69.85;97610.44;5066754;28;20439;-69
2022/02/21 00:19:14;;;;;;;1.20;0.40;;;;;;;9.41;70.91;97578.16;5062836;28;20028;-69
2022/02/21 00:21:40;;;;;;;2.10;0.90;;;;;;;9.37;72.56;97612.84;5061648;28;20039;-69
2022/02/21 00:24:05;;;;;;;2.97;0.70;;;;;;;9.16;74.13;97621.38;5066463;28;20082;-69
2022/02/21 00:26:31;;;;;;;1.70;0.57;;;;;;;9.11;73.91;97596.94;5060917;28;20032;-69
2022/02/21 00:28:56;;;;;;;4.38;0.50;;;;;;;9.13;72.39;97563.28;5065672;28;20028;-69
2022/02/21 00:31:22;;;;;;;5.38;0.63;;;;;;;9.13;72.73;97578.66;5067807;28;20680;-69
2022/02/21 00:33:48;;;;;;;3.03;0.50;;;;;;;9.15;73.95;97585.50;5062723;28;20029;-69
2022/02/21 00:36:13;;;;;;;3.28;0.70;;;;;;;9.11;74.04;97586.16;5059928;28;20040;-69
2022/02/21 00:38:38;;;;;;;1.88;0.45;;;;;;;9.00;75.40;97563.44;5063336;28;20054;-70
2022/02/21 00:41:04;;;;;;;1.25;0.30;;;;;;;8.76;77.11;97538.19;5063019;28;20024;-70
2022/02/21 00:43:29;;;;;;;2.35;0.50;;;;;;;8.72;78.85;97558.53;5070728;28;20388;-70
2022/02/21 00:45:54;;;;;;;1.75;0.40;;;;;;;8.73;78.07;97566.41;5065313;28;21457;-70
2022/02/21 00:48:20;;;;;;;2.97;1.02;;;;;;;8.84;77.82;97564.03;5068725;28;20115;-69
2022/02/21 00:50:45;;;;;;;0.85;0.40;;;;;;;8.70;79.54;97556.06;5064845;28;20036;-69
2022/02/21 00:53:11;;;;;;;2.05;0.60;;;;;;;8.62;79.52;97563.59;5070119;28;20024;-69
2022/02/21 00:55:36;;;;;;;1.60;0.30;;;;;;;8.70;78.86;97557.94;5069588;28;20365;-69
2022/02/21 00:58:03;;;;;;;1.63;0.50;;;;;;;8.45;79.71;97512.13;5067549;28;20036;-69
2022/02/21 01:00:29;;;;;;;2.35;0.35;;;;;;;8.62;79.56;97540.19;5063304;28;20028;-70
2022/02/21 01:02:54;;;;;;;0.68;0.30;;;;;;;8.71;78.98;97521.84;5066644;28;20112;-69
2022/02/21 01:05:20;;;;;;;3.78;0.73;;;;;;;8.66;79.43;97524.38;5066548;28;20033;-69
2022/02/21 01:07:45;;;;;;;2.13;0.57;;;;;;;8.73;78.88;97530.53;5066384;28;20025;-70
2022/02/21 01:10:11;;;;;;;2.95;0.50;;;;;;;8.72;78.55;97523.47;5065282;28;20028;-69
2022/02/21 01:12:36;;;;;;;1.23;0.22;;;;;;;8.83;78.33;97511.13;5067131;28;20077;-69
2022/02/21 01:15:04;;;;;;;2.80;0.43;;;;;;;8.80;78.07;97507.00;5063620;28;20112;-69
2022/02/21 01:17:29;;;;;;;2.65;0.40;;;;;;;8.90;77.57;97499.22;5063248;28;20021;-69
2022/02/21 01:19:55;;;;;;;2.17;0.50;;;;;;;8.89;77.30;97489.50;5063110;28;20373;-69
2022/02/21 01:22:20;;;;;;;2.72;0.73;;;;;;;8.93;76.32;97501.50;5064865;28;20042;-69
2022/02/21 01:24:46;;;;;;;2.88;0.50;;;;;;;8.89;75.52;97451.72;5066048;28;20036;-69
2022/02/21 01:27:14;;;;;;;1.75;0.60;;;;;;;9.16;75.43;97470.28;5065645;28;20032;-69
2022/02/21 01:29:40;;;;;;;2.75;0.60;;;;;;;9.07;76.00;97461.69;5063583;28;20035;-69
2022/02/21 01:32:06;;;;;;;2.78;0.57;;;;;;;9.12;75.71;97469.94;5063124;28;20048;-69
2022/02/21 01:34:31;;;;;;;1.25;0.50;;;;;;;9.06;74.89;97440.31;5063966;28;20430;-69
2022/02/21 01:36:56;;;;;;;3.15;0.60;;;;;;;9.25;74.51;97441.94;5065283;28;20024;-69
2022/02/21 01:39:22;;;;;;;1.13;0.30;;;;;;;9.13;74.86;97435.66;5060379;28;20024;-70
2022/02/21 01:41:47;;;;;;;2.40;0.47;;;;;;;9.24;74.65;97429.50;5060148;28;20107;-69
2022/02/21 01:44:13;;;;;;;3.58;0.50;;;;;;;9.19;75.05;97437.44;5060405;28;20029;-70
2022/02/21 01:46:40;;;;;;;2.70;0.65;;;;;;;9.17;75.46;97420.69;5058723;28;20544;-70
2022/02/21 01:49:07;;;;;;;3.72;0.63;;;;;;;9.17;74.93;97407.19;5066895;28;20055;-70
2022/02/21 01:51:34;;;;;;;2.83;0.57;;;;;;;9.21;74.66;97397.56;5065496;28;20078;-70
2022/02/21 01:54:01;;;;;;;3.60;0.60;;;;;;;9.25;74.89;97425.75;5069966;28;20035;-70
2022/02/21 01:56:28;;;;;;;1.25;0.43;;;;;;;9.23;74.98;97402.75;5067691;28;20021;-70
2022/02/21 01:58:53;;;;;;;3.10;0.50;;;;;;;9.16;75.37;97392.03;5066667;28;20424;-70
2022/02/21 02:01:19;;;;;;;3.10;0.47;;;;;;;9.01;75.31;97357.38;5068480;28;20028;-70
2022/02/21 02:03:44;;;;;;;2.67;0.32;;;;;;;9.11;76.24;97371.13;5066622;28;20029;-70
2022/02/21 02:06:10;;;;;;;1.08;0.50;;;;;;;9.18;75.30;97376.44;5068698;28;20024;-70
2022/02/21 02:08:36;;;;;;;2.50;0.32;;;;;;;9.08;75.67;97349.19;5064899;28;20024;-68
2022/02/21 02:11:01;;;;;;;1.58;0.40;;;;;;;9.13;75.11;97339.34;5065123;28;20066;-69
2022/02/21 02:13:28;;;;;;;2.78;0.43;;;;;;;9.00;75.63;97321.47;5062947;28;20124;-69
2022/02/21 02:15:54;;;;;;;1.55;0.40;;;;;;;9.20;75.53;97353.56;5055435;28;21526;-69
2022/02/21 02:18:21;;;;;;;2.55;0.55;;;;;;;9.20;75.56;97331.16;5056859;28;20039;-70
2022/02/21 02:20:46;;;;;;;1.50;0.43;;;;;;;9.08;75.51;97293.34;5063809;28;20092;-69
2022/02/21 02:23:12;;;;;;;0.75;0.30;;;;;;;9.24;75.51;97321.53;5064879;28;20035;-69
2022/02/21 02:25:39;;;;;;;2.28;0.43;;;;;;;9.15;75.28;97296.78;5060329;28;20074;-70
2022/02/21 02:28:04;;;;;;;1.02;0.30;;;;;;;9.11;75.10;97275.88;5064161;28;20024;-70
2022/02/21 02:30:30;;;;;;;1.25;0.30;;;;;;;9.23;75.83;97301.03;5069553;28;20024;-69
2022/02/21 02:32:55;;;;;;;0.80;0.30;;;;;;;9.25;74.67;97281.88;5067908;28;20037;-69
2022/02/21 02:35:21;;;;;;;2.05;0.60;;;;;;;9.24;75.50;97278.38;5073271;28;20020;-69
2022/02/21 02:37:47;;;;;;;1.55;0.30;;;;;;;9.20;75.54;97282.59;5070217;28;20020;-69
2022/02/21 02:40:12;;;;;;;2.75;0.32;;;;;;;9.18;75.91;97282.81;5072731;28;20119;-70
2022/02/21 02:42:38;;;;;;;1.35;0.20;;;;;;;9.23;75.59;97284.00;5074343;28;20600;-70
2022/02/21 02:45:03;;;;;;;0.80;0.20;;;;;;;9.15;76.98;97277.06;5078425;28;20177;-70
2022/02/21 02:47:29;;;;;;;0.75;0.20;;;;;;;9.14;76.08;97249.28;5077129;28;20119;-70
2022/02/21 02:49:54;;;;;;;0.57;0.20;;;;;;;9.16;75.09;97236.34;5074831;28;20047;-68
2022/02/21 02:52:20;;;;;;;1.33;0.50;;;;;;;9.24;75.37;97262.19;5083678;28;20028;-69
2022/02/21 02:54:45;;;;;;;0.93;0.30;;;;;;;9.11;75.53;97251.59;5079038;28;20039;-69
2022/02/21 02:57:10;;;;;;;0.88;0.28;;;;;;;9.15;76.45;97248.22;5081147;28;20028;-69
2022/02/21 02:59:36;;;;;;;1.10;0.30;;;;;;;9.13;76.06;97230.63;5082909;28;20028;-69
2022/02/21 03:02:01;;;;;;;4.55;0.47;;;;;;;9.10;76.67;97231.09;5080428;28;20028;-69
2022/02/21 03:04:27;;;;;;;1.35;0.30;;;;;;;8.92;79.69;97235.50;5077475;28;20052;-69
2022/02/21 03:06:52;;;;;;;0.93;0.20;;;;;;;8.53;82.00;97202.69;5090509;28;20024;-71
2022/02/21 03:09:18;;;;;;;2.53;0.28;;;;;;;8.46;83.74;97212.75;5091868;28;20044;-70
2022/02/21 03:11:43;;;;;;;0.65;0.20;;;;;;;8.37;83.48;97205.19;5092694;28;20021;-70
2022/02/21 03:14:10;;;;;;;2.42;0.50;;;;;;;8.42;84.37;97227.72;5091086;28;20055;-69
2022/02/21 03:16:35;;;;;;;0.47;0.20;;;;;;;8.34;85.61;97228.03;5093211;28;20384;-69
2022/02/21 03:19:00;;;;;;;0.88;0.20;;;;;;;8.26;87.50;97228.34;5092390;28;20020;-69
2022/02/21 03:21:26;;;;;;;0.98;0.20;;;;;;;8.20;88.46;97250.78;5089214;28;20051;-70
2022/02/21 03:23:51;;;;;;;1.30;0.57;;;;;;;8.24;87.02;97241.22;5092110;28;20055;-70
2022/02/21 03:26:16;;;;;;;3.08;0.75;;;;;;;8.11;87.82;97224.16;5088832;28;20032;-69
2022/02/21 03:28:42;;;;;;;2.55;0.30;;;;;;;8.21;89.49;97263.22;5089479;28;20040;-70
2022/02/21 03:31:08;;;;;;;1.65;0.35;;;;;;;8.13;91.59;97335.19;5086321;28;20028;-70
2022/02/21 03:33:34;;;;;;;2.00;0.30;;;;;;;7.77;98.86;97403.28;5093105;28;20044;-70
2022/02/21 03:35:59;;;;;;;0.77;0.10;;;;;;;6.77;97.06;97449.59;5094696;28;20016;-72
2022/02/21 03:38:24;;;;;;;0.70;0.28;;;;;;;5.81;98.61;97439.41;5091305;28;20036;-71
2022/02/21 03:40:52;;;;;;;0.75;0.20;;;;;;;5.45;100.00;97498.81;5095764;28;20024;-72
2022/02/21 03:43:17;;;;;;;1.20;0.20;;;;;;;4.95;100.00;97504.44;5089139;28;20111;-72
2022/02/21 03:45:43;;;;;;;2.97;0.30;;;;;;;4.83;100.00;97546.22;5087281;28;20033;-71
2022/02/21 03:48:08;;;;;;;2.60;0.57;;;;;;;4.33;100.00;97548.16;5094801;28;20046;-71
2022/02/21 03:50:33;;;;;;;2.75;0.52;;;;;;;4.11;99.65;97521.44;5087116;28;20099;-72
2022/02/21 03:52:59;;;;;;;2.90;0.35;;;;;;;4.06;98.72;97580.06;5093992;28;20020;-73
2022/02/21 03:55:24;;;;;;;3.35;0.40;;;;;;;3.88;97.63;97558.28;5087306;28;20179;-72
2022/02/21 03:57:49;;;;;;;3.45;0.70;;;;;;;4.14;89.55;97571.06;5089341;28;20025;-70
2022/02/21 04:00:18;;;;;;;5.72;0.47;;;;;;;4.09;92.51;97597.59;5093593;28;20031;-74
2022/02/21 04:02:44;;;;;;;4.78;0.30;;;;;;;4.11;90.77;97577.63;5085836;28;20121;-74
2022/02/21 04:05:09;;;;;;;2.28;0.80;;;;;;;4.01;89.00;97569.09;5071754;28;20112;-73
2022/02/21 04:07:35;;;;;;;4.80;0.70;;;;;;;4.01;86.72;97546.84;5073202;28;20546;-75
2022/02/21 04:10:03;;;;;;;3.78;0.60;;;;;;;4.25;87.62;97573.22;5074526;28;20201;-74
2022/02/21 04:12:28;;;;;;;3.47;0.68;;;;;;;4.17;88.20;97598.28;5070089;28;20380;-74
2022/02/21 04:14:54;;;;;;;3.53;0.65;;;;;;;4.29;84.46;97595.06;5071355;28;20028;-74
2022/02/21 04:17:19;;;;;;;2.33;0.50;;;;;;;3.96;88.76;97547.44;5072518;28;20442;-74
2022/02/21 04:19:46;;;;;;;3.28;0.77;;;;;;;3.97;87.22;97562.47;5069137;28;20028;-75
2022/02/21 04:22:12;;;;;;;2.22;0.55;;;;;;;3.80;87.44;97542.31;5064928;28;20039;-74
2022/02/21 04:24:38;;;;;;;1.80;0.60;;;;;;;3.77;88.33;97548.06;5073462;28;20029;-73
2022/02/21 04:27:04;;;;;;;2.85;0.47;;;;;;;3.87;87.53;97572.66;5073051;28;20033;-76
2022/02/21 04:29:29;;;;;;;3.90;0.65;;;;;;;3.83;89.16;97555.34;5071064;28;20029;-75
2022/02/21 04:31:55;;;;;;;3.85;0.75;;;;;;;3.72;90.54;97557.50;5067968;28;20078;-76
2022/02/21 04:34:20;;;;;;;6.07;0.60;;;;;;;3.67;90.24;97551.91;5071024;28;20040;-76
2022/02/21 04:36:46;;;;;;;3.30;0.52;;;;;;;3.85;90.24;97522.03;5070986;28;20472;-77
2022/02/21 04:39:11;;;;;;;4.53;0.50;;;;;;;3.77;89.33;97508.75;5073497;28;20024;-78
2022/02/21 04:41:37;;;;;;;0.93;0.40;;;;;;;3.55;90.22;97472.38;5066019;28;20092;-78
2022/02/21 04:44:03;;;;;;;2.08;0.30;;;;;;;3.71;88.60;97504.19;5074599;28;20058;-76
2022/02/21 04:46:29;;;;;;;1.67;0.40;;;;;;;3.81;87.23;97510.03;5074660;28;20098;-78
2022/02/21 04:48:54;;;;;;;3.22;0.63;;;;;;;3.86;87.48;97506.81;5075774;28;20499;-78
2022/02/21 04:51:20;;;;;;;2.50;0.50;;;;;;;3.78;86.72;97496.25;5074337;28;20025;-79
2022/02/21 04:53:45;;;;;;;5.10;0.80;;;;;;;3.88;86.87;97507.44;5061145;28;20047;-76
2022/02/21 04:56:10;;;;;;;4.93;0.65;;;;;;;3.79;86.79;97474.63;5070262;28;20032;-80
2022/02/21 04:58:36;;;;;;;6.35;0.57;;;;;;;3.78;86.37;97481.00;5061748;28;20082;-75
2022/02/21 05:01:01;;;;;;;3.55;0.45;;;;;;;3.98;86.52;97505.22;5073149;28;20016;-70
2022/02/21 05:03:27;;;;;;;3.42;0.60;;;;;;;4.02;85.53;97511.88;5064487;28;20036;-75
2022/02/21 05:05:52;;;;;;;8.13;0.88;;;;;;;3.67;84.87;97490.38;5067529;28;20024;-76
2022/02/21 05:08:17;;;;;;;1.75;0.50;;;;;;;3.77;85.08;97489.22;5072125;28;20036;-73
2022/02/21 05:10:43;;;;;;;2.17;0.40;;;;;;;3.80;86.20;97529.81;5070124;28;20557;-77
2022/02/21 05:13:08;;;;;;;5.68;0.88;;;;;;;3.87;85.04;97538.69;5065009;28;20020;-70
2022/02/21 05:15:34;;;;;;;9.98;0.73;;;;;;;3.72;85.57;97524.56;5070350;28;20059;-75
2022/02/21 05:17:59;;;;;;;2.45;1.13;;;;;;;4.05;85.42;97570.34;5065983;28;20020;-72
2022/02/21 05:20:25;;;;;;;2.70;0.50;;;;;;;4.08;85.56;97564.63;5065301;28;20052;-77
2022/02/21 05:22:51;;;;;;;5.38;0.93;;;;;;;3.93;85.91;97535.28;5074114;28;20475;-77
2022/02/21 05:25:22;;;;;;;6.90;0.90;;;;;;;3.85;86.24;97531.88;5073611;28;20046;-78
2022/02/21 05:27:47;;;;;;;3.03;0.60;;;;;;;3.98;84.81;97564.09;5080727;28;20103;-73
2022/02/21 05:30:23;;;;;;;5.82;0.80;;;;;;;3.47;84.99;97508.06;5092326;28;20020;-84
2022/02/21 05:33:53;;;;;;;5.10;0.60;;;;;;;4.13;84.41;97630.97;5037346;28;20184;-79
2022/02/21 05:36:18;;;;;;;5.45;0.80;;;;;;;4.10;85.00;97621.47;5057574;28;20048;-77
2022/02/21 05:38:45;;;;;;;8.55;0.82;;;;;;;3.56;84.54;97522.97;5082546;28;20028;-76
2022/02/21 05:41:11;;;;;;;5.70;0.60;;;;;;;4.08;83.19;97610.13;5070970;28;20082;-74
2022/02/21 05:43:36;;;;;;;5.32;0.80;;;;;;;4.13;83.29;97639.81;5063093;28;20032;-77
2022/02/21 05:46:03;;;;;;;4.47;0.73;;;;;;;4.12;82.73;97614.06;5069196;28;20028;-74
2022/02/21 05:48:28;;;;;;;5.85;1.08;;;;;;;3.85;82.91;97564.84;5080083;28;20035;-78
2022/02/21 05:50:53;;;;;;;10.07;0.82;;;;;;;4.25;81.47;97615.22;5085499;28;20032;-75
2022/02/21 05:53:19;;;;;;;10.18;0.77;;;;;;;4.31;81.56;97620.63;5083329;28;20025;-73
2022/02/21 05:55:44;;;;;;;9.23;1.10;;;;;;;4.23;82.05;97604.69;5084604;28;20017;-79
2022/02/21 05:58:09;;;;;;;9.50;0.95;;;;;;;4.27;82.01;97614.00;5089496;28;20048;-78
2022/02/21 06:00:35;;;;;;;7.07;1.25;;;;;;;4.11;81.54;97587.50;5081110;28;20047;-77
2022/02/21 06:03:00;;;;;;;5.32;1.17;;;;;;;4.14;79.42;97595.97;5080731;28;20062;-81
2022/02/21 06:05:25;;;;;;;5.93;0.80;;;;;;;4.14;79.92;97625.44;5076124;28;20020;-78
2022/02/21 06:07:51;;;;;;;15.52;1.73;;;;;;;4.06;79.66;97620.19;5078655;28;20063;-79
2022/02/21 06:10:16;;;;;;;7.63;0.80;;;;;;;4.23;78.50;97622.63;5074242;28;20032;-78
2022/02/21 06:12:42;;;;;;;7.38;1.70;;;;;;;4.20;78.68;97617.66;5071407;28;20027;-79
2022/02/21 06:15:08;;;;;;;11.88;1.83;;;;;;;4.30;78.07;97634.22;5067265;28;20464;-75
2022/02/21 06:17:34;;;;;;;11.98;1.70;;;;;;;4.31;78.88;97665.31;5070061;28;20578;-78
2022/02/21 06:19:59;;;;;;;5.05;0.70;;;;;;;4.18;77.62;97634.72;5077813;28;20028;-78
2022/02/21 06:22:25;;;;;;;6.35;0.90;;;;;;;4.37;76.61;97656.50;5067984;28;20064;-72
2022/02/21 06:24:50;;;;;;;7.30;1.10;;;;;;;4.18;76.66;97634.72;5071028;28;20029;-78
2022/02/21 06:27:16;;;;;;;12.40;1.42;;;;;;;4.29;75.07;97654.78;5072256;28;20028;-76
2022/02/21 06:29:41;;;;;;;6.40;1.00;;;;;;;4.28;75.00;97661.16;5075426;28;20025;-77
2022/02/21 06:32:06;;;;;;;2.83;0.93;;;;;;;4.29;74.87;97688.78;5077266;28;20036;-80
2022/02/21 06:34:32;;;;;;;10.30;1.05;;;;;;;4.11;75.41;97676.66;5084950;28;20016;-79
2022/02/21 06:36:57;;;;;;;7.10;1.02;;;;;;;4.30;74.51;97698.47;5065464;28;20031;-77
2022/02/21 06:39:23;;;;;;;8.60;1.05;;;;;;;4.33;75.09;97703.44;5072312;28;20025;-74
2022/02/21 06:41:49;;;;;;;7.82;0.80;;;;;;;4.52;74.46;97753.69;5069463;28;20483;-78
2022/02/21 06:44:15;;;;;;;11.40;1.35;;;;;;;4.20;75.18;97716.69;5071304;28;20082;-80
2022/02/21 06:46:41;;;;;;;4.95;1.17;;;;;;;3.93;75.15;97678.94;5079180;28;20024;-78
2022/02/21 06:49:07;;;;;;;12.18;1.17;;;;;;;4.17;76.35;97721.41;5082375;28;20059;-73
2022/02/21 06:51:35;;;;;;;11.50;1.30;;;;;;;4.21;75.85;97721.03;5065332;28;20486;-71
2022/02/21 06:54:04;;;;;;;4.72;1.27;;;;;;;4.24;75.97;97717.97;5067800;28;20031;-82
2022/02/21 06:56:30;;;;;;;8.77;1.63;;;;;;;4.08;76.36;97705.63;5068853;28;20033;-76
2022/02/21 06:58:56;;;;;;;8.68;1.27;;;;;;;4.21;75.95;97713.81;5080722;28;20032;-77
2022/02/21 07:01:21;;;;;;;12.80;1.58;;;;;;;4.22;76.37;97723.53;5073043;28;20044;-79
2022/02/21 07:03:48;;;;;;;9.02;1.23;;;;;;;4.31;75.42;97737.59;5070760;28;20404;-70
2022/02/21 07:06:14;;;;;;;6.18;1.30;;;;;;;4.36;74.89;97741.38;5065507;28;20024;-78
2022/02/21 07:08:39;;;;;;;10.18;1.55;;;;;;;4.28;74.38;97736.13;5067453;28;20439;-74
2022/02/21 07:11:05;;;;;;;9.05;1.05;;;;;;;4.31;73.25;97724.22;5083974;28;20048;-78
2022/02/21 07:13:30;;;;;;;9.60;1.10;;;;;;;4.23;72.73;97722.50;5089660;28;20387;-76
2022/02/21 07:15:55;;;;;;;8.50;1.08;;;;;;;4.17;72.47;97716.06;5085799;28;20032;-77
2022/02/21 07:18:21;;;;;;;13.80;1.60;;;;;;;4.18;71.69;97724.91;5067309;28;20040;-72
2022/02/21 07:20:47;;;;;;;8.50;1.73;;;;;;;4.44;70.42;97750.31;5064226;28;20036;-71
2022/02/21 07:23:12;;;;;;;10.55;1.60;;;;;;;4.37;71.57;97764.44;5072880;28;20069;-70
2022/02/21 07:25:37;;;;;;;14.75;1.40;;;;;;;5.44;67.50;97735.88;5069096;28;20029;-70
2022/02/21 07:28:03;;;;;;;6.13;1.33;;;;;;;7.81;60.29;97775.25;5068999;28;20097;-71
2022/02/21 07:30:30;;;;;;;9.55;1.75;;;;;;;8.61;57.28;97785.72;5071621;28;20223;-69
2022/02/21 07:32:56;;;;;;;9.00;1.92;;;;;;;8.28;56.72;97778.63;5066748;28;20047;-70
2022/02/21 07:35:22;;;;;;;11.50;1.60;;;;;;;7.05;59.91;97768.50;5068491;28;20025;-71
2022/02/21 07:37:47;;;;;;;5.82;1.58;;;;;;;7.65;58.85;97793.50;5071921;28;20035;-72
2022/02/21 07:40:13;;;;;;;12.45;1.70;;;;;;;8.69;56.28;97756.63;5068550;28;20040;-71
2022/02/21 07:42:49;;;;;;;8.23;1.25;;;;;;;8.20;56.04;97805.78;5085852;28;20012;-83
2022/02/21 07:45:14;;;;;;;6.45;1.20;;;;;;;8.16;55.49;97821.53;5082408;28;20098;-74
2022/02/21 07:47:44;;;;;;;9.48;1.48;;;;;;;9.16;54.11;97808.41;5072909;28;20029;-71
2022/02/21 07:50:10;;;;;;;6.28;1.30;;;;;;;9.87;52.14;97817.97;5070775;28;20044;-71
2022/02/21 07:52:35;;;;;;;7.40;1.50;;;;;;;9.13;52.64;97818.81;5071315;28;20023;-70
2022/02/21 07:55:00;;;;;;;13.23;1.63;;;;;;;9.42;52.40;97828.97;5071872;28;20035;-71
2022/02/21 07:57:26;;;;;;;8.88;2.20;;;;;;;8.89;52.34;97810.47;5068200;28;20545;-70
2022/02/21 07:59:51;;;;;;;13.25;2.22;;;;;;;9.23;52.84;97842.63;5075320;28;20037;-71
2022/02/21 08:02:16;;;;;;;9.90;1.50;;;;;;;8.06;55.46;97835.44;5063121;28;20039;-73
2022/02/21 08:04:42;;;;;;;10.65;1.85;;;;;;;8.67;54.69;97822.59;5065645;28;20031;-78
2022/02/21 08:07:07;;;;;;;14.77;2.00;;;;;;;8.57;53.56;97841.97;5072804;28;20399;-79
2022/02/21 08:09:35;;;;;;;11.65;1.60;;;;;;;7.49;56.65;97836.97;5071069;28;20056;-73
2022/02/21 08:12:04;;;;;;;10.35;1.92;;;;;;;8.26;55.58;97856.13;5069564;28;20086;-70
2022/02/21 08:14:30;;;;;;;11.63;2.53;;;;;;;8.67;54.37;97823.47;5071730;28;20025;-79
2022/02/21 08:16:55;;;;;;;10.20;2.00;;;;;;;8.29;54.62;97878.09;5072571;28;20065;-77
2022/02/21 08:19:20;;;;;;;12.70;2.38;;;;;;;6.41;58.74;97852.28;5074770;28;20476;-79
2022/02/21 08:21:49;;;;;;;15.60;1.95;;;;;;;6.82;59.46;97864.84;5080112;28;20047;-84
2022/02/21 08:24:15;;;;;;;;;;;;;;;7.18;59.73;97883.34;5070554;28;20044;-75
2022/02/21 08:26:40;;;;;;;13.73;2.20;;;;;;;7.05;59.45;97864.47;5072738;28;19920;-74
2022/02/21 08:29:06;;;;;;;19.20;1.77;;;;;;;6.30;61.99;97875.97;5072256;28;20028;-75
2022/02/21 08:31:31;;;;;;;8.23;1.20;;;;;;;6.19;61.77;97873.88;5077622;28;20037;-75
2022/02/21 08:33:56;;;;;;;12.05;2.08;;;;;;;6.17;63.22;97900.09;5079379;28;20027;-71
2022/02/21 08:36:22;;;;;;;5.18;1.40;;;;;;;6.03;63.78;97890.31;5072483;28;20025;-74
2022/02/21 08:38:47;;;;;;;10.05;2.28;;;;;;;5.60;64.61;97868.88;5067398;28;20094;-76
2022/02/21 08:41:12;;;;;;;17.92;3.50;;;;;;;5.59;65.26;97884.16;5074595;28;20024;-79
2022/02/21 08:43:38;;;;;;;15.05;1.98;;;;;;;5.66;65.30;97911.06;5074853;28;20028;-76
2022/02/21 08:46:03;;;;;;;8.00;1.65;;;;;;;5.52;66.40;97893.19;5079717;28;20025;-74
2022/02/21 08:48:28;;;;;;;13.98;1.60;;;;;;;5.64;66.24;97905.06;5075582;28;20066;-73
2022/02/21 08:50:53;;;;;;;11.10;1.77;;;;;;;5.46;65.94;97927.81;5071690;28;20363;-72
2022/02/21 08:53:19;;;;;;;13.40;2.03;;;;;;;5.44;66.73;97905.69;5075903;28;20071;-80
2022/02/21 08:55:44;;;;;;;15.43;1.77;;;;;;;5.47;66.87;97924.09;5078898;28;20074;-80
2022/02/21 08:58:10;;;;;;;15.52;1.63;;;;;;;5.49;67.06;97916.69;5073527;28;20380;-79
2022/02/21 09:00:38;;;;;;;15.00;1.58;;;;;;;5.20;67.23;97888.16;5068763;28;20027;-75
2022/02/21 09:03:03;;;;;;;17.38;1.83;;;;;;;5.48;67.43;97909.66;5070381;28;20628;-74
2022/02/21 09:05:29;;;;;;;11.50;1.90;;;;;;;5.42;67.02;97920.31;5072400;28;20036;-79
2022/02/21 09:07:54;;;;;;;9.98;1.95;;;;;;;5.47;66.85;97862.38;5078794;28;20032;-75
2022/02/21 09:10:19;;;;;;;10.45;1.77;;;;;;;5.82;66.43;97908.09;5071752;28;20028;-69
2022/02/21 09:12:45;;;;;;;7.78;1.55;;;;;;;5.84;65.23;97897.13;5074609;28;20083;-77
2022/02/21 09:15:11;;;;;;;12.18;1.30;;;;;;;6.31;64.58;97915.28;5075471;28;20098;-71
2022/02/21 09:17:38;;;;;;;9.50;1.40;;;;;;;6.26;63.06;97896.22;5073436;28;20072;-74
2022/02/21 09:20:04;;;;;;;19.15;1.25;;;;;;;5.98;63.12;97906.16;5071927;28;20039;-79
2022/02/21 09:22:29;;;;;;;10.10;1.38;;;;;;;5.52;63.60;97839.53;5073736;28;20024;-74
2022/02/21 09:24:54;;;;;;;11.55;1.85;;;;;;;5.61;64.88;97897.41;5073920;28;20024;-76
2022/02/21 09:27:20;;;;;;;14.90;1.85;;;;;;;5.74;64.83;97900.19;5072785;28;20036;-72
2022/02/21 09:29:46;;;;;;;12.48;1.92;;;;;;;6.10;63.63;97910.81;5071425;28;20028;-79
2022/02/21 09:32:11;;;;;;;5.80;1.08;;;;;;;5.87;63.38;97896.78;5074947;28;20092;-76
2022/02/21 09:34:37;;;;;;;7.38;1.45;;;;;;;6.39;61.82;97924.16;5074859;28;20040;-77
2022/02/21 09:37:02;;;;;;;5.95;1.33;;;;;;;6.15;61.46;97899.44;5068538;28;20476;-76
2022/02/21 09:39:28;;;;;;;6.50;1.02;;;;;;;6.16;61.79;97871.59;5072300;28;20424;-76
2022/02/21 09:41:54;;;;;;;5.80;1.35;;;;;;;5.98;61.48;97895.44;5075853;28;20032;-80
2022/02/21 09:44:20;;;;;;;7.50;1.13;;;;;;;6.22;60.96;97927.19;5070610;28;20029;-76
2022/02/21 09:46:48;;;;;;;6.45;1.20;;;;;;;6.73;60.57;97937.59;5076510;28;20373;-76
2022/02/21 09:49:16;;;;;;;5.57;1.65;;;;;;;6.82;60.32;97945.50;5066114;28;20033;-82
2022/02/21 09:51:41;;;;;;;6.53;0.80;;;;;;;6.84;60.50;97960.38;5063598;28;20052;-71
2022/02/21 09:54:09;;;;;;;8.15;1.02;;;;;;;6.36;61.71;97928.91;5068336;28;20055;-74
2022/02/21 09:56:35;;;;;;;7.35;0.93;;;;;;;6.01;64.15;97957.63;5072067;28;20021;-81
2022/02/21 09:59:01;;;;;;;9.45;1.30;;;;;;;5.34;70.61;97976.78;5082680;28;20077;-73
2022/02/21 10:01:27;;;;;;;5.57;0.80;;;;;;;4.56;77.13;97945.16;5075899;28;20078;-74
2022/02/21 10:03:57;;;;;;;9.68;1.55;;;;;;;4.88;78.89;97980.59;5068728;28;20387;-75
2022/02/21 10:06:25;;;;;;;3.85;1.20;;;;;;;4.70;80.38;97946.16;5061386;28;20408;-77
2022/02/21 10:09:10;;;;;;;7.25;1.23;;;;;;;4.90;81.06;97967.84;5077335;28;20009;-79
2022/02/21 10:11:37;;;;;;;6.57;1.15;;;;;;;5.57;78.15;97981.97;5071615;28;20135;-74
2022/02/21 10:14:15;;;;;;;6.43;1.80;;;;;;;5.66;76.52;97976.28;5067451;28;20028;-79
2022/02/21 10:16:52;;;;;;;19.35;2.35;;;;;;;5.69;76.17;97942.88;5061023;28;20055;-73
2022/02/21 10:19:23;;;;;;;7.88;1.60;;;;;;;5.14;76.34;97957.81;5062350;28;20029;-80
2022/02/21 10:22:04;;;;;;;10.77;2.05;;;;;;;5.69;76.74;97983.97;5068665;28;20035;-76
2022/02/21 10:24:47;;;;;;;10.70;2.28;;;;;;;5.22;76.89;97963.88;5066298;28;20032;-71
2022/02/21 10:27:14;;;;;;;13.20;3.30;;;;;;;6.89;71.74;97955.25;5064374;28;20472;-71
2022/02/21 10:29:52;;;;;;;11.45;1.55;;;;;;;6.90;69.48;97961.44;5064406;28;20090;-71
2022/02/21 10:32:20;;;;;;;17.27;2.50;;;;;;;8.27;66.36;97960.19;5057049;28;20025;-76
2022/02/21 10:34:46;;;;;;;8.90;1.77;;;;;;;10.04;59.61;97947.13;5060973;28;20051;-72
2022/02/21 10:37:13;;;;;;;7.75;1.45;;;;;;;9.70;57.00;97935.75;5062216;28;20025;-71
2022/02/21 10:39:39;;;;;;;7.22;1.20;;;;;;;12.09;52.40;97931.28;5064061;28;20028;-79
2022/02/21 10:42:07;;;;;;;7.28;1.50;;;;;;;9.15;57.70;97957.06;5071193;28;20066;-72
2022/02/21 10:44:41;;;;;;;9.57;1.88;;;;;;;7.40;64.48;97940.47;5071416;28;20025;-76
2022/02/21 10:47:15;;;;;;;8.93;1.63;;;;;;;6.66;69.01;97970.84;5070813;28;20020;-73
2022/02/21 10:49:55;;;;;;;8.70;1.50;;;;;;;6.36;70.51;97971.91;5069305;28;20556;-80
2022/02/21 10:52:21;;;;;;;;;;;;;;;5.72;74.79;97990.78;5071141;28;20028;-78
2022/02/21 10:54:47;;;;;;;11.65;1.92;;;;;;;5.40;78.81;97966.13;5076422;28;20422;-80
2022/02/21 10:57:15;;;;;;;14.93;1.80;;;;;;;5.46;81.35;97984.13;5085657;28;20013;-82
2022/02/21 10:59:41;;;;;;;12.48;1.88;;;;;;;5.91;79.56;97968.66;5069032;28;20167;-70
2022/02/21 11:02:14;;;;;;;11.07;2.40;;;;;;;6.38;75.85;97963.66;5065656;28;20103;-69
2022/02/21 11:04:41;;;;;;;5.25;1.10;;;;;;;6.72;72.69;97965.50;5061508;28;20031;-70
2022/02/21 11:07:07;;;;;;;6.65;1.27;;;;;;;8.84;66.60;97910.09;5068258;28;20016;-69
2022/02/21 11:09:33;;;;;;;6.90;1.25;;;;;;;11.13;58.77;97928.50;5068088;28;20033;-70
2022/02/21 11:12:01;;;;;;;5.53;1.20;;;;;;;11.93;55.80;97922.75;5069238;28;20016;-68
2022/02/21 11:14:29;;;;;;;9.57;1.75;;;;;;;11.50;53.63;97914.84;5068779;28;20058;-68
2022/02/21 11:16:57;;;;;;;5.57;1.15;;;;;;;13.04;51.79;97908.38;5070598;28;20031;-69
2022/02/21 11:19:24;;;;;;;6.93;1.92;;;;;;;13.77;49.72;97895.91;5064313;28;20599;-68
2022/02/21 11:21:50;;;;;;;13.15;1.85;;;;;;;13.30;47.34;97880.66;5066195;28;20533;-68
2022/02/21 11:24:19;;;;;;;4.43;1.35;;;;;;;13.87;46.05;97903.41;5066219;28;20107;-68
2022/02/21 11:26:51;;;;;;;5.68;1.75;;;;;;;12.84;47.84;97887.91;5069208;28;20063;-68
2022/02/21 11:29:30;;;;;;;5.85;1.65;;;;;;;10.92;52.05;97900.03;5063046;28;20544;-67
2022/02/21 11:31:55;;;;;;;9.85;1.80;;;;;;;9.34;55.59;97898.59;5063563;28;20035;-67
2022/02/21 11:34:20;;;;;;;10.55;1.98;;;;;;;9.43;55.11;97898.13;5063751;28;20040;-69
2022/02/21 11:36:49;;;;;;;5.22;1.38;;;;;;;10.43;52.95;97891.88;5064956;28;20044;-71